Time;durP1;ratioP1;P1;durP2;ratioP2;P2;SDS_P1;SDS_P2;PMS_P1;PMS_P2;Temp;Humidity;BMP_temperature;BMP_pressure;BME280_temperature;BME280_humidity;BME280_pressure;Samples;Min_cycle;Max_cycle;Signal;HPM_P1;HPM_P2
2023/08/30 00:00:21;;;;;;;28.00;23.70;;;;;;;19.41;100.00;95562.62;108482;1274;22535;-84
2023/08/30 00:03:11;;;;;;;26.80;23.50;;;;;;;19.34;100.00;95560.38;108538;1276;22534;-84
2023/08/30 00:05:41;;;;;;;26.60;23.70;;;;;;;19.26;100.00;95561.02;108594;1258;22530;-84
2023/08/30 00:08:10;;;;;;;27.90;23.40;;;;;;;19.23;100.00;95566.56;108510;1269;22523;-84
2023/08/30 00:10:38;;;;;;;27.70;23.40;;;;;;;19.24;100.00;95569.88;108549;1276;23339;-84
2023/08/30 00:13:06;;;;;;;26.30;23.00;;;;;;;19.25;100.00;95571.21;108508;1276;24255;-84
2023/08/30 00:15:34;;;;;;;26.70;23.20;;;;;;;19.28;100.00;95575.27;108560;1276;22531;-84
2023/08/30 00:18:03;;;;;;;28.40;23.60;;;;;;;19.30;100.00;95579.29;108556;1276;22561;-84
2023/08/30 00:20:34;;;;;;;26.40;23.50;;;;;;;19.26;100.00;95575.61;108538;1274;22801;-85
2023/08/30 00:23:04;;;;;;;27.30;23.90;;;;;;;19.16;100.00;95572.06;108573;1276;22545;-84
2023/08/30 00:25:32;;;;;;;31.00;24.70;;;;;;;19.10;100.00;95569.87;108668;1276;22526;-84
2023/08/30 00:28:01;;;;;;;32.80;25.80;;;;;;;19.08;100.00;95561.47;108496;1253;23133;-84
2023/08/30 00:30:30;;;;;;;28.10;23.70;;;;;;;19.06;100.00;95562.38;108558;1258;21726;-85
2023/08/30 00:32:59;;;;;;;27.80;24.00;;;;;;;19.08;100.00;95561.24;108508;1272;22562;-84
2023/08/30 00:35:31;;;;;;;26.00;23.30;;;;;;;19.09;100.00;95561.11;108557;1276;22648;-84
2023/08/30 00:38:00;;;;;;;28.70;23.60;;;;;;;19.10;100.00;95562.12;108520;1273;26556;-84
2023/08/30 00:40:37;;;;;;;29.60;25.20;;;;;;;19.08;100.00;95558.86;108580;1276;22533;-84
2023/08/30 00:43:06;;;;;;;33.10;25.20;;;;;;;19.06;100.00;95560.15;108527;1274;22559;-85
2023/08/30 00:45:35;;;;;;;32.50;27.20;;;;;;;19.08;100.00;95555.49;108525;1276;22590;-85
2023/08/30 00:48:05;;;;;;;30.40;25.40;;;;;;;19.08;100.00;95558.17;108555;1272;24249;-85
2023/08/30 00:50:34;;;;;;;28.90;25.70;;;;;;;19.10;100.00;95555.83;108619;1274;22687;-84
2023/08/30 00:53:05;;;;;;;35.60;26.50;;;;;;;19.12;100.00;95553.79;108548;1276;22534;-84
2023/08/30 00:55:36;;;;;;;31.40;27.20;;;;;;;19.14;100.00;95549.48;108564;1271;25249;-84
2023/08/30 00:58:05;;;;;;;33.40;27.70;;;;;;;19.16;100.00;95549.35;108510;1274;22580;-85
2023/08/30 01:00:35;;;;;;;32.60;27.00;;;;;;;19.17;100.00;95552.41;108557;1276;22527;-85
2023/08/30 01:03:06;;;;;;;32.40;26.60;;;;;;;19.12;100.00;95551.95;108541;1265;25528;-85
2023/08/30 01:05:37;;;;;;;34.40;26.60;;;;;;;19.08;100.00;95550.42;108535;1271;22530;-84
2023/08/30 01:08:06;;;;;;;26.20;22.80;;;;;;;19.08;100.00;95548.59;108548;1276;25297;-85
2023/08/30 01:10:47;;;;;;;22.80;18.70;;;;;;;19.03;100.00;95547.27;108550;1269;22541;-84
2023/08/30 01:13:20;;;;;;;20.10;17.00;;;;;;;18.93;100.00;95543.58;108537;1276;22523;-84
2023/08/30 01:15:49;;;;;;;19.10;17.00;;;;;;;18.87;100.00;95544.71;108601;1273;22524;-83
2023/08/30 01:18:25;;;;;;;24.20;21.50;;;;;;;18.86;100.00;95545.21;108570;1270;24705;-83
2023/08/30 01:20:55;;;;;;;26.50;23.40;;;;;;;18.86;100.00;95541.40;108531;1276;22535;-84
2023/08/30 01:23:38;;;;;;;26.80;23.00;;;;;;;18.87;100.00;95542.95;108542;1276;22549;-84
2023/08/30 01:26:11;;;;;;;25.70;21.70;;;;;;;18.88;100.00;95542.34;108530;1276;22544;-84
2023/08/30 01:28:40;;;;;;;21.50;19.00;;;;;;;18.85;100.00;95540.83;108509;1276;23618;-84
2023/08/30 01:31:10;;;;;;;18.00;14.70;;;;;;;18.68;100.00;95538.97;108604;1276;22533;-84
2023/08/30 01:33:40;;;;;;;17.20;14.30;;;;;;;18.56;100.00;95539.72;108561;1276;23068;-84
2023/08/30 01:36:11;;;;;;;17.80;13.90;;;;;;;18.55;100.00;95539.33;108538;1276;22580;-84
2023/08/30 01:38:42;;;;;;;14.20;12.60;;;;;;;18.56;100.00;95542.48;108548;1274;22656;-84
2023/08/30 01:41:11;;;;;;;14.20;12.50;;;;;;;18.57;100.00;95551.09;108550;1276;25432;-84
2023/08/30 01:43:40;;;;;;;14.60;12.10;;;;;;;18.52;100.00;95553.15;108506;1276;23606;-84
2023/08/30 01:46:09;;;;;;;16.40;12.30;;;;;;;18.49;100.00;95555.02;108566;1276;22523;-84
2023/08/30 01:48:38;;;;;;;12.20;10.20;;;;;;;18.53;100.00;95554.23;108528;1276;22548;-84
2023/08/30 01:51:07;;;;;;;11.90;9.70;;;;;;;18.52;100.00;95552.77;108572;1276;22537;-84
2023/08/30 01:53:36;;;;;;;9.80;7.40;;;;;;;18.51;100.00;95551.21;108532;1269;23941;-84
2023/08/30 01:56:05;;;;;;;13.40;7.50;;;;;;;18.46;100.00;95549.05;108520;1271;22542;-84
2023/08/30 01:58:33;;;;;;;11.00;9.70;;;;;;;18.44;100.00;95553.45;108520;1276;22554;-84
2023/08/30 02:01:05;;;;;;;12.80;10.10;;;;;;;18.47;100.00;95556.05;108525;1272;22559;-84
2023/08/30 02:03:34;;;;;;;13.50;10.10;;;;;;;18.47;100.00;95554.98;108507;1269;22527;-84
2023/08/30 02:06:09;;;;;;;12.20;10.40;;;;;;;18.46;100.00;95553.58;108572;1276;23512;-84
2023/08/30 02:08:41;;;;;;;14.70;12.00;;;;;;;18.47;100.00;95551.98;108540;1271;22535;-84
2023/08/30 02:11:15;;;;;;;17.80;15.30;;;;;;;18.48;100.00;95556.30;108558;1273;22608;-84
2023/08/30 02:13:45;;;;;;;20.10;17.70;;;;;;;18.49;100.00;95557.17;108486;1276;22555;-84
2023/08/30 02:16:14;;;;;;;16.40;14.50;;;;;;;18.48;100.00;95553.84;108543;1276;22535;-83
2023/08/30 02:18:42;;;;;;;;;;;;;;;18.43;100.00;95552.67;108548;1273;24646;-84
2023/08/30 02:21:10;;;;;;;16.00;13.10;;;;;;;18.36;100.00;95544.04;108588;1274;22555;-84
2023/08/30 02:23:38;;;;;;;18.00;13.00;;;;;;;18.35;100.00;95546.23;108505;1276;24381;-84
2023/08/30 02:26:07;;;;;;;14.30;12.20;;;;;;;18.39;100.00;95545.84;108542;1272;22527;-84
2023/08/30 02:28:35;;;;;;;16.80;13.40;;;;;;;18.44;100.00;95543.70;108495;1274;22534;-84
2023/08/30 02:31:03;;;;;;;16.30;14.60;;;;;;;18.45;100.00;95546.34;108547;1276;22526;-84
2023/08/30 02:33:31;;;;;;;15.70;14.00;;;;;;;18.43;100.00;95542.45;108566;1272;22541;-84
2023/08/30 02:35:59;;;;;;;14.90;13.30;;;;;;;18.42;100.00;95535.46;108538;1273;24288;-84
2023/08/30 02:38:28;;;;;;;18.00;14.40;;;;;;;18.43;100.00;95539.39;108501;1269;22548;-84
2023/08/30 02:40:56;;;;;;;19.10;14.60;;;;;;;18.43;100.00;95549.61;108551;1269;22542;-84
2023/08/30 02:43:24;;;;;;;20.70;13.70;;;;;;;18.31;100.00;95557.19;108552;1276;22545;-84
2023/08/30 02:45:52;;;;;;;13.30;11.50;;;;;;;18.19;100.00;95546.83;108595;1276;22534;-84
2023/08/30 02:48:21;;;;;;;13.20;11.00;;;;;;;18.08;100.00;95534.20;108522;1276;27994;-84
2023/08/30 02:50:51;;;;;;;13.30;11.10;;;;;;;18.08;100.00;95520.01;108573;1269;22530;-84
2023/08/30 02:53:19;;;;;;;14.40;10.70;;;;;;;18.14;100.00;95511.63;108522;1276;22538;-84
2023/08/30 02:55:48;;;;;;;13.20;11.10;;;;;;;18.18;100.00;95514.86;108528;1275;25434;-84
2023/08/30 02:58:16;;;;;;;14.10;10.90;;;;;;;18.19;100.00;95520.39;108538;1276;24824;-84
2023/08/30 03:00:45;;;;;;;12.90;11.30;;;;;;;18.20;100.00;95515.59;108545;1276;22534;-84
2023/08/30 03:03:13;;;;;;;13.70;11.50;;;;;;;18.20;100.00;95511.45;108543;1276;22567;-84
2023/08/30 03:05:41;;;;;;;14.50;11.50;;;;;;;18.19;100.00;95516.34;108604;1276;22586;-84
2023/08/30 03:08:10;;;;;;;13.40;10.40;;;;;;;18.16;100.00;95519.10;108520;1276;22558;-83
2023/08/30 03:10:38;;;;;;;12.60;11.30;;;;;;;18.12;100.00;95519.94;108545;1271;23862;-84
2023/08/30 03:13:06;;;;;;;13.80;12.30;;;;;;;18.03;100.00;95519.91;108521;1274;22544;-84
2023/08/30 03:15:37;;;;;;;15.20;12.80;;;;;;;17.95;100.00;95518.13;108528;1276;24368;-84
2023/08/30 03:18:06;;;;;;;14.80;11.20;;;;;;;17.89;100.00;95517.11;108532;1276;25281;-84
2023/08/30 03:20:37;;;;;;;14.00;11.90;;;;;;;17.89;100.00;95521.15;108522;1276;22521;-84
2023/08/30 03:23:05;;;;;;;13.00;11.40;;;;;;;17.83;100.00;95533.73;108513;1273;22546;-84
2023/08/30 03:25:34;;;;;;;14.80;12.00;;;;;;;17.74;100.00;95534.17;108572;1274;22556;-84
2023/08/30 03:28:03;;;;;;;14.60;12.50;;;;;;;17.67;100.00;95537.58;108530;1274;23350;-84
2023/08/30 03:30:32;;;;;;;17.40;14.30;;;;;;;17.60;100.00;95539.64;108573;1276;25931;-84
2023/08/30 03:33:00;;;;;;;15.80;13.50;;;;;;;17.55;100.00;95535.92;108540;1272;22530;-84
2023/08/30 03:35:28;;;;;;;15.20;13.10;;;;;;;17.53;100.00;95536.80;108521;1269;22794;-84
2023/08/30 03:37:56;;;;;;;15.30;13.60;;;;;;;17.49;100.00;95539.48;108563;1273;22544;-84
2023/08/30 03:40:26;;;;;;;15.80;14.00;;;;;;;17.46;100.00;95535.57;108524;1275;22534;-84
2023/08/30 03:42:54;;;;;;;17.20;14.00;;;;;;;17.41;100.00;95535.83;108562;1276;22538;-84
2023/08/30 03:45:23;;;;;;;19.30;15.60;;;;;;;17.36;100.00;95533.66;108545;1274;22526;-84
2023/08/30 03:47:51;;;;;;;22.10;16.80;;;;;;;17.31;100.00;95541.95;108535;1276;22499;-84
2023/08/30 03:50:20;;;;;;;17.00;15.20;;;;;;;17.29;100.00;95543.37;108503;1272;25369;-84
2023/08/30 03:52:48;;;;;;;16.70;15.00;;;;;;;17.28;100.00;95543.94;108513;1270;25744;-84
2023/08/30 03:55:17;;;;;;;18.30;14.90;;;;;;;17.25;100.00;95549.64;108495;1269;22721;-84
2023/08/30 03:57:45;;;;;;;15.50;13.90;;;;;;;17.22;100.00;95550.79;108511;1276;22534;-84
2023/08/30 04:00:14;;;;;;;17.60;14.00;;;;;;;17.20;100.00;95553.81;108474;1275;25293;-84
2023/08/30 04:02:44;;;;;;;17.60;15.20;;;;;;;17.21;100.00;95554.90;108559;1276;22776;-85
2023/08/30 04:05:13;;;;;;;17.30;15.20;;;;;;;17.20;100.00;95556.10;108527;1269;22613;-84
2023/08/30 04:07:41;;;;;;;15.60;14.00;;;;;;;17.17;100.00;95551.54;108506;1269;22538;-84
2023/08/30 04:10:10;;;;;;;18.80;16.20;;;;;;;17.18;100.00;95548.88;108466;1276;22539;-84
2023/08/30 04:12:39;;;;;;;17.80;15.40;;;;;;;17.19;100.00;95552.72;108569;1272;22535;-85
2023/08/30 04:15:10;;;;;;;24.80;16.70;;;;;;;17.19;100.00;95551.27;108534;1276;22538;-84
2023/08/30 04:17:38;;;;;;;21.20;16.40;;;;;;;17.19;100.00;95554.09;108558;1276;22591;-84
2023/08/30 04:20:10;;;;;;;16.90;15.10;;;;;;;17.19;100.00;95553.11;108537;1269;22541;-84
2023/08/30 04:22:40;;;;;;;17.40;14.20;;;;;;;17.20;100.00;95553.34;108585;1276;24549;-84
2023/08/30 04:25:09;;;;;;;18.60;13.90;;;;;;;17.20;100.00;95552.27;108524;1269;22583;-84
2023/08/30 04:27:37;;;;;;;;;;;;;;;17.22;100.00;95549.80;108529;1276;22506;-84
2023/08/30 04:30:08;;;;;;;18.70;15.80;;;;;;;17.22;100.00;95549.48;108502;1276;22547;-84
2023/08/30 04:32:36;;;;;;;19.60;16.40;;;;;;;17.25;100.00;95547.40;108548;1276;22539;-85
2023/08/30 04:35:06;;;;;;;19.30;16.20;;;;;;;17.25;100.00;95546.88;108544;1276;22539;-84
2023/08/30 04:37:35;;;;;;;20.30;18.10;;;;;;;17.26;100.00;95544.36;108570;1274;22665;-84
2023/08/30 04:40:04;;;;;;;24.00;19.10;;;;;;;17.27;100.00;95542.16;108526;1276;24219;-84
2023/08/30 04:55:02;;;;;;;21.70;18.20;;;;;;;17.58;100.00;95537.85;105886;1296;558583;-75
2023/08/30 04:57:33;;;;;;;20.50;17.90;;;;;;;17.61;100.00;95542.52;107883;1281;143403;-75
2023/08/30 05:00:06;;;;;;;17.10;15.30;;;;;;;17.61;100.00;95544.42;108139;1281;22579;-75
2023/08/30 05:02:37;;;;;;;19.40;15.50;;;;;;;17.67;100.00;95551.52;108098;1273;22516;-75
2023/08/30 05:05:10;;;;;;;20.90;15.70;;;;;;;17.74;100.00;95559.83;108082;1281;25537;-75
2023/08/30 05:07:41;;;;;;;19.20;15.70;;;;;;;17.81;100.00;95564.57;108111;1281;22524;-75
2023/08/30 05:10:13;;;;;;;21.20;16.40;;;;;;;17.81;100.00;95571.16;108053;1281;22535;-75
2023/08/30 05:12:49;;;;;;;18.60;16.50;;;;;;;17.76;100.00;95573.67;108127;1267;22542;-75
2023/08/30 05:15:20;;;;;;;20.40;17.50;;;;;;;17.76;100.00;95570.54;107999;1282;22526;-74
2023/08/30 05:17:51;;;;;;;19.20;17.10;;;;;;;17.79;100.00;95571.05;107958;1276;22559;-75
2023/08/30 05:20:22;;;;;;;20.90;17.30;;;;;;;17.83;100.00;95575.27;107954;1282;25437;-75
2023/08/30 05:22:53;;;;;;;20.10;16.50;;;;;;;17.88;100.00;95569.55;107986;1282;22549;-75
2023/08/30 05:25:24;;;;;;;19.30;16.70;;;;;;;17.92;100.00;95564.97;108000;1282;22570;-75
2023/08/30 05:27:55;;;;;;;20.30;17.10;;;;;;;17.96;100.00;95567.58;107971;1277;22556;-75
2023/08/30 05:30:27;;;;;;;21.70;18.00;;;;;;;17.98;100.00;95570.29;107997;1280;23047;-75
2023/08/30 05:32:58;;;;;;;21.70;17.50;;;;;;;18.01;100.00;95565.01;108000;1276;22520;-75
2023/08/30 05:35:29;;;;;;;22.40;17.30;;;;;;;18.02;100.00;95565.42;107995;1281;22594;-75
2023/08/30 05:38:00;;;;;;;20.00;17.80;;;;;;;18.02;100.00;95567.65;107989;1280;22561;-75
2023/08/30 05:40:31;;;;;;;21.00;17.00;;;;;;;18.05;100.00;95564.63;107952;1280;23488;-75
2023/08/30 05:43:03;;;;;;;19.70;17.40;;;;;;;18.06;100.00;95561.36;107939;1278;22727;-75
2023/08/30 05:45:33;;;;;;;21.00;16.70;;;;;;;18.09;100.00;95560.80;108052;1281;22546;-75
2023/08/30 05:48:06;;;;;;;21.00;17.00;;;;;;;18.12;100.00;95557.25;108021;1281;22533;-74
2023/08/30 05:50:37;;;;;;;20.00;16.90;;;;;;;18.15;100.00;95556.33;108058;1281;22647;-75
2023/08/30 05:53:11;;;;;;;21.80;17.10;;;;;;;18.18;100.00;95554.10;108061;1273;25053;-75
2023/08/30 05:55:42;;;;;;;21.00;16.60;;;;;;;18.21;100.00;95553.63;108038;1281;22549;-74
2023/08/30 05:58:15;;;;;;;18.50;16.00;;;;;;;18.25;100.00;95551.63;108072;1281;22600;-74
2023/08/30 06:00:46;;;;;;;21.10;16.70;;;;;;;18.28;100.00;95558.50;108079;1281;22534;-74
2023/08/30 06:03:17;;;;;;;19.20;16.20;;;;;;;18.30;100.00;95560.39;108037;1281;22508;-74
2023/08/30 06:05:48;;;;;;;19.90;16.30;;;;;;;18.29;100.00;95562.30;108077;1277;22524;-75
2023/08/30 06:08:20;;;;;;;17.30;14.90;;;;;;;18.27;100.00;95562.00;108049;1281;22527;-75
2023/08/30 06:10:52;;;;;;;18.70;15.30;;;;;;;18.26;100.00;95562.75;108083;1281;22529;-74
2023/08/30 06:13:23;;;;;;;21.00;16.80;;;;;;;18.19;100.00;95566.00;108090;1281;22555;-74
2023/08/30 06:15:54;;;;;;;18.40;15.80;;;;;;;18.15;100.00;95565.88;108063;1274;22551;-74
2023/08/30 06:18:25;;;;;;;19.80;16.10;;;;;;;18.13;100.00;95571.38;108061;1281;22555;-74
2023/08/30 06:20:56;;;;;;;20.40;15.40;;;;;;;18.08;100.00;95569.84;108124;1281;22532;-74
2023/08/30 06:23:27;;;;;;;17.50;15.70;;;;;;;18.06;100.00;95575.84;108007;1273;22752;-74
2023/08/30 06:25:59;;;;;;;19.50;15.90;;;;;;;18.03;100.00;95574.86;108048;1281;22556;-74
2023/08/30 06:28:30;;;;;;;17.80;14.70;;;;;;;17.99;100.00;95577.20;108060;1281;22554;-74
2023/08/30 06:31:02;;;;;;;19.00;15.90;;;;;;;17.97;100.00;95576.34;108109;1275;22537;-74
2023/08/30 06:33:33;;;;;;;20.50;15.30;;;;;;;17.97;100.00;95584.00;107998;1280;23012;-74
2023/08/30 06:36:05;;;;;;;18.80;15.70;;;;;;;18.00;100.00;95588.50;108017;1273;22538;-74
2023/08/30 06:38:36;;;;;;;19.10;16.10;;;;;;;18.02;100.00;95591.77;108066;1281;22527;-74
2023/08/30 06:41:07;;;;;;;18.60;16.30;;;;;;;18.00;100.00;95590.55;108097;1281;22574;-75
2023/08/30 06:43:41;;;;;;;20.20;16.00;;;;;;;18.03;100.00;95593.56;108036;1281;22631;-74
2023/08/30 06:46:12;;;;;;;19.10;16.00;;;;;;;18.08;100.00;95594.81;109678;1257;25379;-84
2023/08/30 06:48:44;;;;;;;17.70;14.60;;;;;;;18.12;100.00;95592.52;108306;1278;47375;-84
2023/08/30 06:51:17;;;;;;;18.10;15.00;;;;;;;18.15;100.00;95593.34;108223;1281;22596;-84
2023/08/30 06:53:48;;;;;;;19.20;14.90;;;;;;;18.19;100.00;95597.43;108489;1281;22687;-84
2023/08/30 06:56:24;;;;;;;16.60;14.50;;;;;;;18.21;100.00;95594.40;108354;1281;26468;-84
2023/08/30 06:58:56;;;;;;;21.20;15.70;;;;;;;18.24;100.00;95594.75;108432;1279;27876;-84
2023/08/30 07:01:30;;;;;;;20.20;16.20;;;;;;;18.26;100.00;95596.80;108445;1279;22574;-84
2023/08/30 07:04:02;;;;;;;21.00;16.30;;;;;;;18.29;100.00;95600.69;108477;1273;25525;-84
2023/08/30 07:06:35;;;;;;;23.80;15.50;;;;;;;18.31;100.00;95604.05;108518;1281;22555;-84
2023/08/30 07:09:08;;;;;;;20.20;15.50;;;;;;;18.33;100.00;95607.31;108474;1281;25037;-84
2023/08/30 07:11:39;;;;;;;21.10;16.10;;;;;;;18.35;100.00;95611.70;108097;1273;22564;-84
2023/08/30 07:14:11;;;;;;;20.30;16.00;;;;;;;18.36;100.00;95621.30;108119;1281;22587;-84
2023/08/30 07:16:42;;;;;;;18.20;14.50;;;;;;;18.36;100.00;95624.45;108181;1272;22539;-84
2023/08/30 07:19:13;;;;;;;19.10;15.00;;;;;;;18.35;100.00;95627.51;108210;1279;22551;-83
2023/08/30 07:21:44;;;;;;;19.10;15.00;;;;;;;18.33;100.00;95625.85;108226;1278;23372;-83
2023/08/30 07:24:15;;;;;;;18.50;15.20;;;;;;;18.32;100.00;95629.20;108207;1279;22525;-83
2023/08/30 07:26:46;;;;;;;18.10;15.10;;;;;;;18.32;100.00;95632.81;108250;1278;23127;-83
2023/08/30 07:29:17;;;;;;;18.50;14.80;;;;;;;18.36;100.00;95636.71;108330;1271;22528;-82
2023/08/30 07:31:51;;;;;;;18.30;15.00;;;;;;;18.37;100.00;95636.81;108325;1272;25049;-83
2023/08/30 07:34:24;;;;;;;18.50;14.50;;;;;;;18.37;100.00;95641.02;108304;1277;22531;-83
2023/08/30 07:36:56;;;;;;;15.10;12.40;;;;;;;18.36;100.00;95640.04;108454;1276;22556;-83
2023/08/30 07:39:33;;;;;;;14.70;12.40;;;;;;;18.37;100.00;95638.88;108422;1269;22529;-82
2023/08/30 07:42:04;;;;;;;16.60;13.70;;;;;;;18.38;100.00;95637.08;108076;1269;22579;-82
2023/08/30 07:44:35;;;;;;;15.70;13.60;;;;;;;18.44;100.00;95633.96;108328;1273;22535;-82
2023/08/30 07:47:07;;;;;;;15.10;12.60;;;;;;;18.49;100.00;95638.84;108474;1276;26857;-84
2023/08/30 07:49:37;;;;;;;15.70;12.70;;;;;;;18.50;100.00;95635.62;108501;1276;24443;-83
2023/08/30 07:52:10;;;;;;;16.00;13.40;;;;;;;18.50;100.00;95632.80;108390;1271;23629;-84
2023/08/30 07:54:42;;;;;;;14.60;12.20;;;;;;;18.50;100.00;95629.96;108457;1271;25342;-84
2023/08/30 07:57:13;;;;;;;13.30;11.30;;;;;;;18.47;100.00;95631.56;108425;1271;22521;-84
2023/08/30 07:59:43;;;;;;;13.50;10.80;;;;;;;18.43;100.00;95628.17;108434;1270;24831;-84
2023/08/30 08:02:14;;;;;;;13.90;9.50;;;;;;;18.43;100.00;95631.48;108434;1271;25285;-84
2023/08/30 08:04:46;;;;;;;12.20;9.60;;;;;;;18.43;100.00;95635.30;108402;1269;22542;-84
2023/08/30 08:07:18;;;;;;;9.40;8.00;;;;;;;18.40;100.00;95634.73;108375;1276;22964;-84
2023/08/30 08:09:52;;;;;;;10.70;8.20;;;;;;;18.38;100.00;95632.99;108435;1276;22559;-84
2023/08/30 08:12:27;;;;;;;10.70;8.80;;;;;;;18.37;100.00;95637.67;108401;1276;24308;-83
2023/08/30 08:14:59;;;;;;;11.30;9.20;;;;;;;18.42;100.00;95634.77;108430;1276;22571;-83
2023/08/30 08:17:31;;;;;;;11.40;9.10;;;;;;;18.54;100.00;95632.41;108424;1276;22552;-83
2023/08/30 08:20:02;;;;;;;12.80;9.70;;;;;;;18.63;100.00;95627.23;108403;1276;22544;-82
2023/08/30 08:22:33;;;;;;;11.70;9.50;;;;;;;18.72;100.00;95635.17;108399;1276;24207;-83
2023/08/30 08:25:05;;;;;;;12.60;9.60;;;;;;;18.76;100.00;95632.73;108420;1276;22550;-83
2023/08/30 08:27:36;;;;;;;11.00;9.50;;;;;;;18.79;100.00;95631.77;108447;1273;24288;-82
2023/08/30 08:30:10;;;;;;;12.40;9.50;;;;;;;18.85;100.00;95626.00;108499;1269;22637;-82
2023/08/30 08:32:41;;;;;;;11.50;9.90;;;;;;;18.90;100.00;95621.80;108635;1276;24216;-82
2023/08/30 08:35:13;;;;;;;13.70;10.40;;;;;;;18.93;100.00;95621.98;108537;1270;24297;-83
2023/08/30 08:37:43;;;;;;;12.60;10.30;;;;;;;18.92;100.00;95620.37;108452;1269;22527;-83
2023/08/30 08:40:15;;;;;;;13.80;12.40;;;;;;;18.91;100.00;95616.05;108505;1276;22518;-82
2023/08/30 08:42:46;;;;;;;13.70;10.40;;;;;;;18.92;100.00;95619.52;108541;1276;23041;-82
2023/08/30 08:45:19;;;;;;;12.80;10.00;;;;;;;18.82;100.00;95622.48;108517;1276;22595;-83
2023/08/30 08:47:54;;;;;;;15.20;13.40;;;;;;;18.81;100.00;95624.38;108403;1276;22524;-82
2023/08/30 08:50:28;;;;;;;12.20;10.30;;;;;;;18.86;100.00;95628.33;108404;1276;22521;-82
2023/08/30 08:53:00;;;;;;;13.00;9.30;;;;;;;18.93;100.00;95630.75;108455;1276;26469;-82
2023/08/30 08:55:32;;;;;;;11.30;10.10;;;;;;;18.96;100.00;95632.95;108503;1276;22560;-82
2023/08/30 08:58:06;;;;;;;11.90;10.40;;;;;;;19.01;100.00;95632.81;108505;1270;22529;-82
2023/08/30 09:00:38;;;;;;;11.80;10.00;;;;;;;19.08;100.00;95635.93;108458;1269;22523;-82
2023/08/30 09:03:09;;;;;;;14.40;12.90;;;;;;;19.14;100.00;95634.28;108474;1275;24142;-82
2023/08/30 09:05:41;;;;;;;13.00;11.50;;;;;;;19.15;100.00;95636.73;108439;1270;22634;-82
2023/08/30 09:08:13;;;;;;;18.40;16.30;;;;;;;19.07;100.00;95636.91;108462;1269;22529;-83
2023/08/30 09:10:50;;;;;;;21.70;19.60;;;;;;;18.91;100.00;95635.61;108496;1276;22511;-83
2023/08/30 09:13:30;;;;;;;15.90;14.20;;;;;;;18.74;100.00;95634.98;108525;1276;25410;-83
2023/08/30 09:16:02;;;;;;;14.50;12.70;;;;;;;18.67;100.00;95638.76;108443;1276;22554;-82
2023/08/30 09:18:33;;;;;;;16.90;13.20;;;;;;;18.67;100.00;95636.92;108434;1273;22551;-82
2023/08/30 09:21:14;;;;;;;13.40;11.50;;;;;;;18.69;100.00;95633.04;108397;1276;25558;-83
2023/08/30 09:23:45;;;;;;;14.30;11.80;;;;;;;18.71;100.00;95627.95;108447;1273;22527;-83
2023/08/30 09:26:16;;;;;;;16.80;13.50;;;;;;;18.73;100.00;95627.31;108370;1271;22644;-83
2023/08/30 09:28:50;;;;;;;15.50;12.70;;;;;;;18.75;100.00;95631.55;108455;1276;23555;-86
2023/08/30 09:31:33;;;;;;;13.40;11.40;;;;;;;18.76;100.00;95631.11;108381;1276;22578;-85
2023/08/30 09:34:07;;;;;;;13.20;11.40;;;;;;;18.81;100.00;95631.66;108433;1276;22538;-85
2023/08/30 09:36:39;;;;;;;12.30;10.60;;;;;;;18.92;100.00;95622.99;108299;1271;22528;-85
2023/08/30 09:39:12;;;;;;;12.70;10.20;;;;;;;19.07;100.00;95630.08;108382;1276;22686;-85
2023/08/30 09:41:46;;;;;;;14.60;10.80;;;;;;;19.17;100.00;95637.17;108454;1275;22566;-84
2023/08/30 09:44:20;;;;;;;13.20;11.50;;;;;;;19.20;100.00;95636.92;108394;1269;22784;-84
2023/08/30 09:46:55;;;;;;;13.20;11.20;;;;;;;19.19;100.00;95643.20;108408;1275;22521;-84
2023/08/30 09:49:29;;;;;;;13.20;11.30;;;;;;;19.22;100.00;95648.54;108378;1271;23487;-84
2023/08/30 09:52:06;;;;;;;13.20;11.50;;;;;;;19.24;100.00;95651.02;108395;1271;22541;-84
2023/08/30 09:54:41;;;;;;;14.20;10.80;;;;;;;19.19;100.00;95654.34;108473;1260;22573;-82
2023/08/30 09:57:13;;;;;;;12.70;10.70;;;;;;;19.17;100.00;95651.30;108370;1271;22525;-84
2023/08/30 09:59:46;;;;;;;15.50;12.00;;;;;;;19.21;100.00;95649.60;108416;1273;22993;-84
2023/08/30 10:02:21;;;;;;;13.20;10.90;;;;;;;19.21;100.00;95650.38;108502;1271;22524;-84
2023/08/30 10:04:54;;;;;;;14.30;11.70;;;;;;;19.19;100.00;95652.96;108458;1275;22669;-85
2023/08/30 10:07:30;;;;;;;13.60;11.90;;;;;;;19.26;100.00;95653.77;108428;1276;22523;-84
2023/08/30 10:10:06;;;;;;;13.00;10.60;;;;;;;19.35;100.00;95657.92;108460;1276;22534;-85
2023/08/30 10:12:38;;;;;;;12.30;9.90;;;;;;;19.41;100.00;95652.63;108448;1276;22527;-84
2023/08/30 10:15:10;;;;;;;12.00;9.60;;;;;;;19.45;100.00;95657.34;108557;1276;24285;-85
2023/08/30 10:17:46;;;;;;;11.30;9.90;;;;;;;19.44;100.00;95660.14;108371;1272;25374;-84
2023/08/30 10:20:18;;;;;;;13.30;9.50;;;;;;;19.42;100.00;95657.88;108366;1276;24212;-85
2023/08/30 10:22:52;;;;;;;12.00;10.00;;;;;;;19.39;100.00;95655.73;108435;1276;24550;-85
2023/08/30 10:25:31;;;;;;;13.10;11.40;;;;;;;19.25;100.00;95653.45;108483;1276;22826;-84
2023/08/30 10:28:02;;;;;;;15.00;11.80;;;;;;;19.11;100.00;95655.02;108425;1269;25270;-83
2023/08/30 10:30:34;;;;;;;13.80;11.40;;;;;;;19.02;100.00;95651.93;108430;1273;22553;-83
2023/08/30 10:33:13;;;;;;;14.90;11.80;;;;;;;18.95;100.00;95650.66;108408;1276;25414;-84
2023/08/30 10:35:55;;;;;;;15.40;11.90;;;;;;;18.90;100.00;95648.65;108421;1269;22520;-79
2023/08/30 10:38:31;;;;;;;16.30;12.40;;;;;;;18.90;100.00;95645.04;108429;1268;22562;-80
2023/08/30 10:41:11;;;;;;;17.20;12.00;;;;;;;18.89;100.00;95644.13;108417;1273;22524;-80
2023/08/30 10:43:42;;;;;;;12.80;11.10;;;;;;;18.89;100.00;95647.33;108463;1276;22653;-80
2023/08/30 10:46:13;;;;;;;14.20;11.40;;;;;;;18.92;100.00;95645.45;108371;1268;22636;-85
2023/08/30 10:48:45;;;;;;;12.60;11.30;;;;;;;18.96;100.00;95646.38;108261;1273;22521;-80
2023/08/30 10:51:38;;;;;;;13.90;12.00;;;;;;;19.03;100.00;95643.66;108397;1276;22511;-81
2023/08/30 10:54:17;;;;;;;15.00;11.30;;;;;;;19.03;100.00;95643.45;108449;1264;24216;-84
2023/08/30 10:57:00;;;;;;;15.40;13.10;;;;;;;19.00;100.00;95638.32;108525;1276;22602;-84
2023/08/30 10:59:34;;;;;;;16.30;13.70;;;;;;;18.88;100.00;95635.41;108473;1276;22551;-84
2023/08/30 11:02:07;;;;;;;14.40;12.00;;;;;;;18.77;100.00;95636.34;108365;1272;22535;-84
2023/08/30 11:04:42;;;;;;;15.20;13.40;;;;;;;18.71;100.00;95632.31;108417;1271;22547;-83
2023/08/30 11:07:14;;;;;;;15.30;12.40;;;;;;;18.64;100.00;95626.42;108367;1276;24025;-83
2023/08/30 11:09:46;;;;;;;16.30;13.20;;;;;;;18.58;100.00;95621.30;108404;1271;22524;-83
2023/08/30 11:28:07;;;;;;;14.30;11.20;;;;;;;17.96;100.00;95631.64;105505;1305;545019;-83
2023/08/30 11:30:43;;;;;;;15.20;11.80;;;;;;;17.81;100.00;95633.42;108490;1275;22544;-85
2023/08/30 11:33:17;;;;;;;14.60;11.70;;;;;;;17.71;100.00;95639.16;108640;1272;22532;-83
2023/08/30 11:35:54;;;;;;;15.00;11.80;;;;;;;17.68;100.00;95641.14;108597;1267;22587;-85
2023/08/30 11:38:29;;;;;;;13.00;10.90;;;;;;;17.63;100.00;95638.14;108258;1278;22632;-85
2023/08/30 11:41:02;;;;;;;11.20;9.00;;;;;;;17.59;100.00;95637.79;108206;1276;241393;-85
2023/08/30 11:43:35;;;;;;;10.80;8.90;;;;;;;17.53;100.00;95636.66;108506;1276;22511;-84
2023/08/30 11:46:08;;;;;;;9.90;8.10;;;;;;;17.56;100.00;95622.93;108542;1275;22527;-84
2023/08/30 11:48:42;;;;;;;10.70;7.70;;;;;;;17.63;100.00;95629.33;108465;1269;22630;-84